Atlantic City International Airport
KACY : now visible

Aeroporto :











RITROVATECI SU...

 
LOGIN :

Iscrizione | Disclaimer

   EN    FR    IT 

 









Sommario :    VFR   VFR Marginale   IFR   IFR Intensivo   IFR Molto Intensivo
Visibilità : 
Base nubi : 
>= 8 km
>= 3000ft
5 / 8 km
1000 / 3000 ft
1500m / 5 km
500 / 1000 ft
800 / 1500m
200 / 500 ft
< 800m
< 200 ft
Simboli :   Temporali  Nebbia  Neve Forte  Precipitazioni Forti  Vento > 20 kt






- Altitudine del aeroporto : 75 ft
- Codice IATA : ACY


KACY - Atlantic City International

ULTIMO METAR :
  • 272054Z 27010KT 10SM BKN090 07/00 A2972 RMK AO2 SLP066 60000 T00670000 53001

METARs OBSOLETI :
  • 271954Z 29012G18KT 10SM FEW029 BKN036 OVC060 07/00 A2972 RMK AO2 RAB22E35 SLP063 P0000 T00720000
  • 271854Z 30017KT 10SM BKN039 OVC046 07/00 A2971 RMK AO2 SLP061 T00720000
  • 271754Z 28013KT 10SM SCT036 OVC075 08/M01 A2972 RMK AO2 SLP064 T00831011 10089 20033 58024

TAF KACY
Valido dal 27 a 18 ore il 28 a 18 ore UTC


271727Z 2718/2818 28012G20KT P6SM BKN040 BKN080
FM272300 29006KT P6SM BKN040
FM280200 30006KT P6SM SCT040
FM281400 31012G20KT P6SM SCT045



MetMap, La meteo Aeronautica in un colpo d'occhio ! - Copyright ORBIFLY Dicembre 2007 - Disclaimer

ORBIFLY MET'MAP TEAM :

Programmazione e sviluppo : Alexandra Zaïnal
Concezione : Baudouin d'Aumeries
Aiuto per la programmazione : Marc-Olivier Méhu
Supporto tecnico e logistico : Manuel Goepfert
Aiuto per la traduzione : Arnaldo La Scala

Contatto : metmap@orbifly.com




FONTI E CREDITI :

   NOAA       Earth
Advisory